createdAt,value
2022-08-22T00:00:57.893Z,1.70
2022-08-22T00:02:33.144Z,1.80
2022-08-22T00:02:42.589Z,1.30
2022-08-22T00:02:46.055Z,1.20
2022-08-22T00:02:46.732Z,1.27
2022-08-22T00:02:47.029Z,0.90
2022-08-22T00:02:56.790Z,1.23
2022-08-22T00:02:59.456Z,1.90
2022-08-22T00:03:01.345Z,1.00
2022-08-22T00:03:04.349Z,0.80
2022-08-22T00:03:09.132Z,1.30
2022-08-22T00:03:16.333Z,1.73
2022-08-22T00:04:10.232Z,1.55
2022-08-22T00:05:23.545Z,1.90
2022-08-22T00:06:54.614Z,1.85
2022-08-22T00:08:26.853Z,1.48
2022-08-22T00:10:04.509Z,1.52
2022-08-22T00:11:18.344Z,1.30
2022-08-22T00:12:24.926Z,1.42
2022-08-22T00:13:35.343Z,1.50
2022-08-22T00:14:45.363Z,1.98
2022-08-22T00:16:04.238Z,1.83
2022-08-22T00:17:21.651Z,1.50
2022-08-22T00:18:37.732Z,1.60
2022-08-22T00:20:01.041Z,1.92
2022-08-22T00:21:12.783Z,1.50
2022-08-22T00:22:30.143Z,1.60
2022-08-22T00:23:50.659Z,1.50
2022-08-22T00:25:25.644Z,1.60
2022-08-22T00:26:58.462Z,1.65
2022-08-22T00:28:10.215Z,1.58
2022-08-22T00:29:18.165Z,1.80
2022-08-22T00:30:19.999Z,1.80
2022-08-22T00:31:21.867Z,1.80
2022-08-22T00:32:29.682Z,1.90
2022-08-22T00:33:54.014Z,1.80
2022-08-22T00:35:41.736Z,1.70
2022-08-22T00:36:57.822Z,1.90
2022-08-22T00:38:02.674Z,2.15
2022-08-22T00:39:21.974Z,2.20
2022-08-22T00:40:36.270Z,2.17
2022-08-22T00:42:02.208Z,1.60
2022-08-22T00:43:10.063Z,2.10
2022-08-22T00:44:41.794Z,1.70
2022-08-22T00:46:01.897Z,1.83
2022-08-22T00:47:03.450Z,2.05
2022-08-22T00:48:36.096Z,2.13
2022-08-22T00:49:44.860Z,2.10
2022-08-22T00:51:09.496Z,2.08
2022-08-22T00:52:31.342Z,2.95
2022-08-22T00:53:47.994Z,2.10
2022-08-22T00:55:17.453Z,2.13
2022-08-22T00:56:40.669Z,2.00
2022-08-22T00:58:01.040Z,2.97
2022-08-22T00:59:29.657Z,2.00
2022-08-22T01:00:35.283Z,2.08
2022-08-22T01:01:43.883Z,2.33
2022-08-22T01:03:10.322Z,2.15
2022-08-22T01:04:41.434Z,2.40
2022-08-22T01:05:52.315Z,2.25
2022-08-22T01:07:03.913Z,2.22
2022-08-22T01:08:29.897Z,2.30
2022-08-22T01:09:43.542Z,2.05
2022-08-22T01:10:50.997Z,2.43
2022-08-22T01:12:02.823Z,2.00
2022-08-22T01:13:29.084Z,1.88
2022-08-22T01:14:38.738Z,2.60
2022-08-22T01:15:40.360Z,2.30
2022-08-22T01:17:00.831Z,2.50
2022-08-22T01:18:05.417Z,2.03
2022-08-22T01:19:21.017Z,2.00
2022-08-22T01:21:03.286Z,2.05
2022-08-22T01:22:26.394Z,2.08
2022-08-22T01:23:58.671Z,2.00
2022-08-22T01:25:32.030Z,2.35
2022-08-22T01:26:51.968Z,2.20
2022-08-22T01:28:14.612Z,2.17
2022-08-22T01:29:51.143Z,2.08
2022-08-22T01:31:40.646Z,2.13
2022-08-22T01:33:07.878Z,1.90
2022-08-22T01:34:18.185Z,2.13
2022-08-22T01:35:45.649Z,2.10
2022-08-22T01:36:52.826Z,2.10
2022-08-22T01:38:03.536Z,2.37
2022-08-22T01:39:20.280Z,2.17
2022-08-22T01:40:36.184Z,2.10
2022-08-22T01:41:55.205Z,1.73
2022-08-22T01:43:04.481Z,2.15
2022-08-22T01:44:18.067Z,1.90
2022-08-22T01:45:41.782Z,2.35
2022-08-22T01:46:54.487Z,2.55
2022-08-22T01:48:11.149Z,2.22
2022-08-22T01:49:18.766Z,2.20
2022-08-22T01:51:02.124Z,2.40
2022-08-22T01:52:06.365Z,2.15
2022-08-22T01:53:10.708Z,2.33
2022-08-22T01:54:13.523Z,2.20
2022-08-22T01:55:39.266Z,2.10
2022-08-22T01:56:45.038Z,2.25
2022-08-22T01:57:56.050Z,2.17
2022-08-22T01:59:11.348Z,2.38
2022-08-22T02:00:16.649Z,2.25
2022-08-22T02:01:20.899Z,2.13
2022-08-22T02:02:44.271Z,2.67
2022-08-22T02:04:09.768Z,2.35
2022-08-22T02:05:17.483Z,2.50
2022-08-22T02:06:29.340Z,2.50
2022-08-22T02:07:59.043Z,2.50
2022-08-22T02:09:30.803Z,2.65
2022-08-22T02:11:03.611Z,2.10
2022-08-22T02:12:21.362Z,2.30
2022-08-22T02:13:52.930Z,2.30
2022-08-22T02:15:21.920Z,2.00
2022-08-22T02:16:39.272Z,2.43
2022-08-22T02:18:04.765Z,1.80
2022-08-22T02:19:10.789Z,2.30
2022-08-22T02:20:24.421Z,2.85
2022-08-22T02:21:47.921Z,2.30
2022-08-22T02:23:17.714Z,2.30
2022-08-22T02:24:34.991Z,2.30
2022-08-22T02:26:04.244Z,2.53
2022-08-22T02:27:17.784Z,2.80
2022-08-22T02:28:38.046Z,2.20
2022-08-22T02:29:48.113Z,2.63
2022-08-22T02:30:59.946Z,2.40
2022-08-22T02:32:15.791Z,2.40
2022-08-22T02:33:39.781Z,2.53
2022-08-22T02:35:01.853Z,2.53
2022-08-22T02:36:33.373Z,2.10
2022-08-22T02:38:02.952Z,2.38
2022-08-22T02:39:22.063Z,2.28
2022-08-22T02:40:30.749Z,2.22
2022-08-22T02:41:37.519Z,2.25
2022-08-22T02:42:50.330Z,2.50
2022-08-22T02:43:59.742Z,2.08
2022-08-22T02:45:39.057Z,1.90
2022-08-22T02:46:40.733Z,1.90
2022-08-22T02:48:09.530Z,2.45
2022-08-22T02:49:30.821Z,2.30
2022-08-22T02:50:51.255Z,2.13
2022-08-22T02:52:03.394Z,2.20
2022-08-22T02:53:18.115Z,1.90
2022-08-22T02:54:38.056Z,2.60
2022-08-22T02:55:44.229Z,2.10
2022-08-22T02:56:50.723Z,1.98
2022-08-22T02:58:05.566Z,2.30
2022-08-22T02:59:34.980Z,2.20
2022-08-22T03:00:49.432Z,2.10
2022-08-22T03:01:51.366Z,2.13
2022-08-22T03:02:52.935Z,2.00
2022-08-22T03:04:18.039Z,1.60
2022-08-22T03:05:24.120Z,1.85
2022-08-22T03:06:44.120Z,2.10
2022-08-22T03:07:51.114Z,2.20
2022-08-22T03:09:08.674Z,1.98
2022-08-22T03:10:23.544Z,1.83
2022-08-22T03:11:27.857Z,1.83
2022-08-22T03:12:46.052Z,1.73
2022-08-22T03:14:09.158Z,1.60
2022-08-22T03:15:13.691Z,1.90
2022-08-22T03:16:18.642Z,1.75
2022-08-22T03:17:24.350Z,1.92
2022-08-22T03:18:43.600Z,2.00
2022-08-22T03:20:05.672Z,2.10
2022-08-22T03:21:17.511Z,1.90
2022-08-22T03:22:24.299Z,2.03
2022-08-22T03:23:52.331Z,2.03
2022-08-22T03:25:32.264Z,1.70
2022-08-22T03:26:45.145Z,1.85
2022-08-22T03:28:00.281Z,1.92
2022-08-22T03:29:08.188Z,1.60
2022-08-22T03:30:33.302Z,1.80
2022-08-22T03:31:35.490Z,1.45
2022-08-22T03:33:15.351Z,1.40
2022-08-22T03:34:21.587Z,1.73
2022-08-22T03:35:46.309Z,1.55
2022-08-22T03:37:23.206Z,2.05
2022-08-22T03:38:33.594Z,1.52
2022-08-22T03:40:21.812Z,1.85
2022-08-22T03:41:36.037Z,1.70
2022-08-22T03:43:00.411Z,1.90
2022-08-22T03:44:32.268Z,2.00
2022-08-22T03:45:49.657Z,2.30
2022-08-22T03:47:03.590Z,2.00
2022-08-22T03:48:29.445Z,2.00
2022-08-22T03:49:59.451Z,2.20
2022-08-22T03:51:16.298Z,2.20
2022-08-22T03:52:29.760Z,2.03
2022-08-22T03:53:54.466Z,3.10
2022-08-22T03:55:26.053Z,3.20
2022-08-22T03:56:49.163Z,3.25
2022-08-22T03:58:28.225Z,3.35
2022-08-22T03:59:54.629Z,3.85
2022-08-22T04:01:24.671Z,3.20
2022-08-22T04:03:08.033Z,3.47
2022-08-22T04:04:28.697Z,3.78
2022-08-22T04:05:48.598Z,4.13
2022-08-22T04:07:33.432Z,4.70
2022-08-22T04:09:04.755Z,4.68
2022-08-22T04:10:28.868Z,4.45
2022-08-22T04:11:32.202Z,5.13
2022-08-22T04:12:59.489Z,4.93
2022-08-22T04:14:08.778Z,5.03
2022-08-22T04:15:29.088Z,4.90
2022-08-22T04:16:55.065Z,5.10
2022-08-22T04:18:00.994Z,5.20
2022-08-22T04:19:22.830Z,5.22
2022-08-22T04:20:56.695Z,5.38
2022-08-22T04:22:01.140Z,5.15
2022-08-22T04:23:07.496Z,5.47
2022-08-22T04:24:34.013Z,5.63
2022-08-22T04:25:48.615Z,5.53
2022-08-22T04:26:52.995Z,6.15
2022-08-22T04:27:58.564Z,5.87
2022-08-22T04:29:09.340Z,5.90
2022-08-22T04:30:16.678Z,5.72
2022-08-22T04:31:23.118Z,6.00
2022-08-22T04:32:29.623Z,6.43
2022-08-22T04:33:39.755Z,7.63
2022-08-22T04:35:07.055Z,6.50
2022-08-22T04:36:19.941Z,6.55
2022-08-22T04:37:32.272Z,6.93
2022-08-22T04:38:37.225Z,6.45
2022-08-22T04:39:56.627Z,6.57
2022-08-22T04:41:04.693Z,7.15
2022-08-22T04:42:31.593Z,6.68
2022-08-22T04:43:43.590Z,6.07
2022-08-22T04:44:52.633Z,6.45
2022-08-22T04:45:58.911Z,6.78
2022-08-22T04:47:13.440Z,6.53
2022-08-22T04:48:33.837Z,6.72
2022-08-22T04:49:43.771Z,6.45
2022-08-22T04:51:25.807Z,6.95
2022-08-22T04:52:48.660Z,6.53
2022-08-22T04:54:32.245Z,6.90
2022-08-22T04:55:53.177Z,6.82
2022-08-22T04:56:59.909Z,6.88
2022-08-22T04:58:30.240Z,6.50
2022-08-22T04:59:31.961Z,6.78
2022-08-22T05:01:08.997Z,6.95
2022-08-22T05:02:12.148Z,6.97
2022-08-22T05:03:15.579Z,6.80
2022-08-22T05:04:26.393Z,6.53
2022-08-22T05:05:32.684Z,7.40
2022-08-22T05:06:37.241Z,6.70
2022-08-22T05:08:05.090Z,7.28
2022-08-22T05:09:11.874Z,6.53
2022-08-22T05:10:19.899Z,7.88
2022-08-22T05:11:22.758Z,6.82
2022-08-22T05:12:36.948Z,6.60
2022-08-22T05:13:44.233Z,6.35
2022-08-22T05:14:49.122Z,7.07
2022-08-22T05:15:53.562Z,6.90
2022-08-22T05:16:55.193Z,6.43
2022-08-22T05:17:59.081Z,6.40
2022-08-22T05:19:07.791Z,6.63
2022-08-22T05:20:11.172Z,6.78
2022-08-22T05:21:13.978Z,6.95
2022-08-22T05:22:19.590Z,6.50
2022-08-22T05:23:35.161Z,6.85
2022-08-22T05:24:42.485Z,6.80
2022-08-22T05:25:44.541Z,5.72
2022-08-22T05:26:49.321Z,5.35
2022-08-22T05:27:56.420Z,5.97
2022-08-22T05:29:01.558Z,5.45
2022-08-22T05:30:09.739Z,5.60
2022-08-22T05:31:18.921Z,5.10
2022-08-22T05:32:27.554Z,4.88
2022-08-22T05:33:49.259Z,4.65
2022-08-22T05:34:51.374Z,5.43
2022-08-22T05:35:58.065Z,6.13
2022-08-22T05:37:10.530Z,4.22
2022-08-22T05:38:14.300Z,4.22
2022-08-22T05:39:19.608Z,3.97
2022-08-22T05:40:28.102Z,4.00
2022-08-22T05:41:36.781Z,4.32
2022-08-22T05:42:38.421Z,4.15
2022-08-22T05:43:41.884Z,4.82
2022-08-22T05:44:43.571Z,5.40
2022-08-22T05:45:45.406Z,4.18
2022-08-22T05:46:55.949Z,4.38
2022-08-22T05:48:09.042Z,4.47
2022-08-22T05:49:22.470Z,4.45
2022-08-22T05:50:31.116Z,3.77
2022-08-22T05:51:43.535Z,4.53
2022-08-22T05:53:06.243Z,5.03
2022-08-22T05:54:21.822Z,5.22
2022-08-22T05:55:58.587Z,4.65
2022-08-22T05:57:20.697Z,4.10
2022-08-22T05:58:43.447Z,4.88
2022-08-22T05:59:45.079Z,4.82
2022-08-22T06:00:51.988Z,4.72
2022-08-22T06:02:02.738Z,4.30
2022-08-22T06:03:19.920Z,4.97
2022-08-22T06:04:27.720Z,5.05
2022-08-22T06:05:31.219Z,5.30
2022-08-22T06:06:38.123Z,4.50
2022-08-22T06:07:45.058Z,5.15
2022-08-22T06:09:21.224Z,5.18
2022-08-22T06:10:43.098Z,4.68
2022-08-22T06:11:56.276Z,4.78
2022-08-22T06:13:12.203Z,4.93
2022-08-22T06:14:19.372Z,4.75
2022-08-22T06:16:10.086Z,5.17
2022-08-22T06:17:18.336Z,5.40
2022-08-22T06:18:21.827Z,5.00
2022-08-22T06:19:23.922Z,5.88
2022-08-22T06:20:30.098Z,5.93
2022-08-22T06:21:39.279Z,5.60
2022-08-22T06:22:45.410Z,6.00
2022-08-22T06:24:01.661Z,5.47
2022-08-22T06:25:13.972Z,6.05
2022-08-22T06:26:20.243Z,5.65
2022-08-22T06:27:24.238Z,5.50
2022-08-22T06:28:28.164Z,5.40
2022-08-22T06:29:35.494Z,6.00
2022-08-22T06:30:37.402Z,5.40
2022-08-22T06:31:43.725Z,5.30
2022-08-22T06:32:59.051Z,5.38
2022-08-22T06:34:33.138Z,5.22
2022-08-22T06:36:00.783Z,5.95
2022-08-22T06:37:04.652Z,5.18
2022-08-22T06:38:06.327Z,5.50
2022-08-22T06:39:10.871Z,4.87
2022-08-22T06:40:13.593Z,5.70
2022-08-22T06:41:15.237Z,6.65
2022-08-22T06:42:19.290Z,5.93
2022-08-22T06:43:22.558Z,6.07
2022-08-22T06:44:26.497Z,6.32
2022-08-22T06:45:30.362Z,5.90
2022-08-22T06:46:33.397Z,6.35
2022-08-22T06:47:52.164Z,6.15
2022-08-22T06:48:56.188Z,6.18
2022-08-22T06:50:06.278Z,5.73
2022-08-22T06:51:15.740Z,6.47
2022-08-22T06:52:22.484Z,6.38
2022-08-22T06:53:35.353Z,6.40
2022-08-22T06:54:37.987Z,6.45
2022-08-22T06:55:42.229Z,7.30
2022-08-22T06:56:45.946Z,6.30
2022-08-22T06:57:54.888Z,6.40
2022-08-22T06:58:57.804Z,6.15
2022-08-22T06:59:59.743Z,6.63
2022-08-22T07:01:19.055Z,6.40
2022-08-22T07:02:50.511Z,6.47
2022-08-22T07:03:54.269Z,6.07
2022-08-22T07:04:55.903Z,6.68
2022-08-22T07:05:57.599Z,6.82
2022-08-22T07:06:59.958Z,7.00
2022-08-22T07:08:08.734Z,6.85
2022-08-22T07:09:27.820Z,6.95
2022-08-22T07:10:29.424Z,7.47
2022-08-22T07:11:39.057Z,6.88
2022-08-22T07:12:41.112Z,6.67
2022-08-22T07:13:45.697Z,7.00
2022-08-22T07:14:51.559Z,7.18
2022-08-22T07:15:56.254Z,7.22
2022-08-22T07:16:59.217Z,7.28
2022-08-22T07:18:05.158Z,7.30
2022-08-22T07:19:07.047Z,7.28
2022-08-22T07:20:18.775Z,8.15
2022-08-22T07:21:31.254Z,7.60
2022-08-22T07:22:38.169Z,6.80
2022-08-22T07:23:41.075Z,6.87
2022-08-22T07:24:51.728Z,6.97
2022-08-22T07:26:27.075Z,7.45
2022-08-22T07:27:43.919Z,6.82
2022-08-22T07:28:58.383Z,7.15
2022-08-22T07:30:10.240Z,7.18
2022-08-22T07:31:31.826Z,7.28
2022-08-22T07:32:44.499Z,8.20
2022-08-22T07:33:51.399Z,8.18
2022-08-22T07:35:00.455Z,8.52
2022-08-22T07:36:06.987Z,7.67
2022-08-22T07:37:12.521Z,7.15
2022-08-22T07:38:19.065Z,7.20
2022-08-22T07:39:35.912Z,6.90
2022-08-22T07:40:53.931Z,7.57
2022-08-22T07:42:11.393Z,7.57
2022-08-22T07:43:34.478Z,8.35
2022-08-22T07:45:12.345Z,7.80
2022-08-22T07:46:25.635Z,8.20
2022-08-22T07:47:32.717Z,8.73
2022-08-22T07:48:53.499Z,8.63
2022-08-22T07:50:02.875Z,8.70
2022-08-22T07:51:06.880Z,9.35
2022-08-22T07:52:09.876Z,8.55
2022-08-22T07:53:30.650Z,9.32
2022-08-22T07:54:58.043Z,8.57
2022-08-22T07:55:59.878Z,8.20
2022-08-22T07:57:13.312Z,7.88
2022-08-22T07:58:15.488Z,8.43
2022-08-22T07:59:18.834Z,8.25
2022-08-22T08:00:21.041Z,8.37
2022-08-22T08:01:23.420Z,8.88
2022-08-22T08:02:25.129Z,8.57
2022-08-22T08:03:27.981Z,8.48
2022-08-22T08:04:31.529Z,8.85
2022-08-22T08:05:33.825Z,8.55
2022-08-22T08:06:35.530Z,8.30
2022-08-22T08:07:37.192Z,8.75
2022-08-22T08:08:43.638Z,8.88
2022-08-22T08:09:50.057Z,9.00
2022-08-22T08:10:52.657Z,8.73
2022-08-22T08:11:54.340Z,8.70
2022-08-22T08:13:03.754Z,8.70
2022-08-22T08:14:05.855Z,9.10
2022-08-22T08:15:09.346Z,8.57
2022-08-22T08:16:19.726Z,8.73
2022-08-22T08:17:31.414Z,8.57
2022-08-22T08:18:34.538Z,8.52
2022-08-22T08:19:38.319Z,8.70
2022-08-22T08:20:39.944Z,8.57
2022-08-22T08:21:53.650Z,8.40
2022-08-22T08:22:56.024Z,8.60
2022-08-22T08:23:57.801Z,8.48
2022-08-22T08:24:59.514Z,9.75
2022-08-22T08:26:10.591Z,8.50
2022-08-22T08:27:33.491Z,9.10
2022-08-22T08:28:39.982Z,7.93
2022-08-22T08:29:43.462Z,8.73
2022-08-22T08:30:56.033Z,8.77
2022-08-22T08:31:57.648Z,8.68
2022-08-22T08:33:24.405Z,9.00
2022-08-22T08:34:23.514Z,9.30
2022-08-22T08:35:28.092Z,9.52
2022-08-22T08:36:48.304Z,9.48
2022-08-22T08:37:53.035Z,9.30
2022-08-22T08:39:10.195Z,9.32
2022-08-22T08:40:30.549Z,9.10
2022-08-22T08:41:45.403Z,8.52
2022-08-22T08:43:27.631Z,8.82
2022-08-22T08:44:54.584Z,8.48
2022-08-22T08:46:25.574Z,8.33
2022-08-22T08:47:43.113Z,7.93
2022-08-22T08:48:59.663Z,9.20
2022-08-22T08:50:11.723Z,9.35
2022-08-22T08:51:19.980Z,9.73
2022-08-22T08:53:06.762Z,9.35
2022-08-22T08:54:38.083Z,9.07
2022-08-22T08:55:51.336Z,9.40
2022-08-22T08:57:15.564Z,9.13
2022-08-22T08:58:56.634Z,9.57
2022-08-22T08:59:59.978Z,9.03
2022-08-22T09:01:14.022Z,9.02
2022-08-22T09:04:38.059Z,9.52
2022-08-22T09:06:01.389Z,8.95
2022-08-22T09:07:21.636Z,9.07
2022-08-22T09:08:35.812Z,9.40
2022-08-22T09:09:37.491Z,9.13
2022-08-22T09:11:04.500Z,8.77
2022-08-22T09:12:23.829Z,9.80
2022-08-22T09:13:40.717Z,9.27
2022-08-22T09:15:04.319Z,9.60
2022-08-22T09:16:32.220Z,8.93
2022-08-22T09:18:01.206Z,9.68
2022-08-22T09:19:17.220Z,9.55
2022-08-22T09:20:47.650Z,9.52
2022-08-22T09:22:00.754Z,9.73
2022-08-22T09:23:38.953Z,9.93
2022-08-22T09:24:58.893Z,9.23
2022-08-22T09:26:10.006Z,8.90
2022-08-22T09:27:35.923Z,9.50
2022-08-22T09:28:53.636Z,8.65
2022-08-22T09:29:59.956Z,9.60
2022-08-22T09:31:46.490Z,9.35
2022-08-22T09:33:01.068Z,9.25
2022-08-22T09:34:30.199Z,9.88
2022-08-22T09:35:50.455Z,8.80
2022-08-22T09:37:21.348Z,9.43
2022-08-22T09:38:56.606Z,8.82
2022-08-22T09:40:15.326Z,9.38
2022-08-22T09:40:17.597Z,9.85
2022-08-22T09:41:55.303Z,9.70
2022-08-22T09:43:00.297Z,9.45
2022-08-22T09:44:39.485Z,9.45
2022-08-22T09:46:14.457Z,9.98
2022-08-22T09:48:00.255Z,9.13
2022-08-22T09:49:11.217Z,10.40
2022-08-22T09:50:17.064Z,10.57
2022-08-22T09:51:40.443Z,10.35
2022-08-22T09:52:57.305Z,9.18
2022-08-22T09:54:02.411Z,9.95
2022-08-22T09:55:15.993Z,10.03
2022-08-22T09:56:44.393Z,10.57
2022-08-22T09:58:06.930Z,10.82
2022-08-22T09:59:23.420Z,9.68
2022-08-22T10:00:32.133Z,10.55
2022-08-22T10:01:56.341Z,10.50
2022-08-22T10:03:07.561Z,10.77
2022-08-22T10:04:26.098Z,10.85
2022-08-22T10:05:49.646Z,10.38
2022-08-22T10:06:57.880Z,10.55
2022-08-22T10:08:45.866Z,10.00
2022-08-22T10:10:10.674Z,10.68
2022-08-22T10:11:32.364Z,10.73
2022-08-22T10:12:40.055Z,10.85
2022-08-22T10:13:57.536Z,10.98
2022-08-22T10:15:14.701Z,10.65
2022-08-22T10:17:07.945Z,10.82
2022-08-22T10:18:52.819Z,10.80
2022-08-22T10:20:13.801Z,10.55
2022-08-22T10:21:39.489Z,10.15
2022-08-22T10:23:12.125Z,10.40
2022-08-22T10:24:43.746Z,11.23
2022-08-22T10:25:51.741Z,10.57
2022-08-22T10:26:54.838Z,11.55
2022-08-22T10:28:10.447Z,11.50
2022-08-22T10:29:49.460Z,10.95
2022-08-22T10:31:14.193Z,10.60
2022-08-22T10:32:30.939Z,10.40
2022-08-22T10:33:40.386Z,10.57
2022-08-22T10:34:44.433Z,11.23
2022-08-22T10:35:55.053Z,11.07
2022-08-22T10:37:06.299Z,11.18
2022-08-22T10:38:16.560Z,11.35
2022-08-22T10:39:36.411Z,10.85
2022-08-22T10:40:46.668Z,10.50
2022-08-22T10:42:19.887Z,10.82
2022-08-22T10:44:01.331Z,10.35
2022-08-22T10:45:09.212Z,11.13
2022-08-22T10:46:15.802Z,10.90
2022-08-22T10:47:35.899Z,11.32
2022-08-22T10:48:57.250Z,10.63
2022-08-22T10:50:06.526Z,10.90
2022-08-22T10:51:16.515Z,10.18
2022-08-22T10:52:30.422Z,10.68
2022-08-22T10:53:58.618Z,10.80
2022-08-22T10:55:09.665Z,10.38
2022-08-22T10:56:27.350Z,10.55
2022-08-22T10:57:44.199Z,10.95
2022-08-22T10:58:56.112Z,11.50
2022-08-22T11:00:15.724Z,11.35
2022-08-22T11:01:37.793Z,11.33
2022-08-22T11:02:57.999Z,10.95
2022-08-22T11:04:12.209Z,10.32
2022-08-22T11:05:18.193Z,11.20
2022-08-22T11:06:51.525Z,11.75
2022-08-22T11:08:16.795Z,10.30
2022-08-22T11:09:54.294Z,10.20
2022-08-22T11:11:32.734Z,10.05
2022-08-22T11:12:41.763Z,10.65
2022-08-22T11:14:03.081Z,10.88
2022-08-22T11:15:48.547Z,10.00
2022-08-22T11:17:02.886Z,9.25
2022-08-22T11:18:42.571Z,9.30
2022-08-22T11:19:53.016Z,9.20
2022-08-22T11:21:07.270Z,9.85
2022-08-22T11:22:33.769Z,9.40
2022-08-22T11:23:58.079Z,9.32
2022-08-22T11:25:11.442Z,9.90
2022-08-22T11:26:29.925Z,9.57
2022-08-22T11:27:38.356Z,8.70
2022-08-22T11:29:12.292Z,9.10
2022-08-22T11:30:24.043Z,9.23
2022-08-22T11:31:51.471Z,9.40
2022-08-22T11:33:00.167Z,9.00
2022-08-22T11:34:21.366Z,8.50
2022-08-22T11:35:26.031Z,8.43
2022-08-22T11:36:54.639Z,8.95
2022-08-22T11:38:45.345Z,8.48
2022-08-22T11:40:03.962Z,8.80
2022-08-22T11:41:10.166Z,8.93
2022-08-22T11:42:24.194Z,8.07
2022-08-22T11:43:49.931Z,8.73
2022-08-22T11:45:02.339Z,8.60
2022-08-22T11:46:30.104Z,9.10
2022-08-22T11:47:36.209Z,8.77
2022-08-22T11:49:02.635Z,9.57
2022-08-22T11:50:29.591Z,9.35
2022-08-22T11:51:57.512Z,9.48
2022-08-22T11:53:08.657Z,9.57
2022-08-22T11:54:19.942Z,9.43
2022-08-22T11:55:23.001Z,9.70
2022-08-22T11:56:45.116Z,9.50
2022-08-22T11:58:11.471Z,9.45
2022-08-22T11:59:53.571Z,9.20
2022-08-22T12:00:55.233Z,9.23
2022-08-22T12:02:01.732Z,8.95
2022-08-22T12:03:42.691Z,8.45
2022-08-22T12:04:46.758Z,9.20
2022-08-22T12:06:06.248Z,8.77
2022-08-22T12:07:12.037Z,9.32
2022-08-22T12:08:17.129Z,7.80
2022-08-22T12:09:50.873Z,9.75
2022-08-22T12:10:58.474Z,8.30
2022-08-22T12:12:04.687Z,8.80
2022-08-22T12:13:36.471Z,8.13
2022-08-22T12:14:56.111Z,9.52
2022-08-22T12:16:06.704Z,9.57
2022-08-22T12:17:55.848Z,8.98
2022-08-22T12:19:06.008Z,8.48
2022-08-22T12:20:16.354Z,8.55
2022-08-22T12:21:43.288Z,8.10
2022-08-22T12:23:01.297Z,8.40
2022-08-22T12:24:19.362Z,8.88
2022-08-22T12:25:50.149Z,9.05
2022-08-22T12:27:28.565Z,8.80
2022-08-22T12:28:42.987Z,8.93
2022-08-22T12:29:53.787Z,9.20
2022-08-22T12:31:13.503Z,9.63
2022-08-22T12:32:17.923Z,9.82
2022-08-22T12:33:37.470Z,9.57
2022-08-22T12:35:13.726Z,9.43
2022-08-22T12:36:34.695Z,9.05
2022-08-22T12:38:28.074Z,9.10
2022-08-22T12:39:42.942Z,9.13
2022-08-22T12:41:02.610Z,9.57
2022-08-22T12:42:12.684Z,10.40
2022-08-22T12:43:39.943Z,9.30
2022-08-22T12:45:22.509Z,10.40
2022-08-22T12:46:47.495Z,9.77
2022-08-22T12:48:07.808Z,10.05
2022-08-22T12:49:44.982Z,10.43
2022-08-22T12:51:02.846Z,10.98
2022-08-22T12:52:38.737Z,10.60
2022-08-22T12:54:04.511Z,10.02
2022-08-22T12:55:06.705Z,11.30
2022-08-22T12:56:24.831Z,10.77
2022-08-22T12:57:59.576Z,12.98
2022-08-22T12:59:13.448Z,10.80
2022-08-22T13:00:42.021Z,5.95
2022-08-22T13:01:45.008Z,3.75
2022-08-22T13:02:47.272Z,3.50
2022-08-22T13:03:57.369Z,4.93
2022-08-22T13:05:09.213Z,4.05
2022-08-22T13:06:35.261Z,3.35
2022-08-22T13:07:37.884Z,2.47
2022-08-22T13:08:41.616Z,3.05
2022-08-22T13:09:48.453Z,2.70
2022-08-22T13:10:52.510Z,2.70
2022-08-22T13:11:59.980Z,3.33
2022-08-22T13:13:12.002Z,2.90
2022-08-22T13:14:18.976Z,2.00
2022-08-22T13:15:53.507Z,2.15
2022-08-22T13:16:57.675Z,2.97
2022-08-22T13:18:18.845Z,3.33
2022-08-22T13:19:31.925Z,3.60
2022-08-22T13:20:36.867Z,3.33
2022-08-22T13:21:44.243Z,3.50
2022-08-22T13:22:45.918Z,2.97
2022-08-22T13:23:53.241Z,2.85
2022-08-22T13:25:04.880Z,2.85
2022-08-22T13:26:11.150Z,2.90
2022-08-22T13:27:21.120Z,3.45
2022-08-22T13:28:22.743Z,2.90
2022-08-22T13:29:58.717Z,2.75
2022-08-22T13:31:00.951Z,2.25
2022-08-22T13:32:03.749Z,2.20
2022-08-22T13:33:21.347Z,2.05
2022-08-22T13:34:46.066Z,2.10
2022-08-22T13:35:52.213Z,1.77
2022-08-22T13:36:55.853Z,1.70
2022-08-22T13:38:12.084Z,2.07
2022-08-22T13:39:14.713Z,2.00
2022-08-22T13:40:28.984Z,1.83
2022-08-22T13:41:32.372Z,2.25
2022-08-22T13:42:36.155Z,2.30
2022-08-22T13:44:00.323Z,1.75
2022-08-22T13:45:05.821Z,2.45
2022-08-22T13:46:11.106Z,3.08
2022-08-22T13:47:18.247Z,3.25
2022-08-22T13:48:21.444Z,2.90
2022-08-22T13:49:44.050Z,3.57
2022-08-22T13:51:11.244Z,3.70
2022-08-22T13:52:31.330Z,3.13
2022-08-22T13:53:49.988Z,3.53
2022-08-22T13:55:29.491Z,3.45
2022-08-22T13:56:39.409Z,3.00
2022-08-22T13:57:54.621Z,3.35
2022-08-22T13:58:58.805Z,3.75
2022-08-22T14:00:09.021Z,3.30
2022-08-22T14:01:43.261Z,3.45
2022-08-22T14:03:08.245Z,3.10
2022-08-22T14:04:36.062Z,2.90
2022-08-22T14:05:58.824Z,2.53
2022-08-22T14:07:08.846Z,2.60
2022-08-22T14:08:18.452Z,3.00
2022-08-22T14:09:29.355Z,2.45
2022-08-22T14:10:35.274Z,2.00
2022-08-22T14:11:52.029Z,2.42
2022-08-22T14:12:56.336Z,2.58
2022-08-22T14:14:05.476Z,2.47
2022-08-22T14:15:10.140Z,2.10
2022-08-22T14:16:27.702Z,1.90
2022-08-22T14:17:38.503Z,2.35
2022-08-22T14:18:48.443Z,1.88
2022-08-22T14:20:02.815Z,2.20
2022-08-22T14:21:16.384Z,2.63
2022-08-22T14:22:23.104Z,2.30
2022-08-22T14:23:34.470Z,1.92
2022-08-22T14:24:45.957Z,2.10
2022-08-22T14:25:47.769Z,1.80
2022-08-22T14:27:05.195Z,2.13
2022-08-22T14:28:21.126Z,1.95
2022-08-22T14:29:23.566Z,2.13
2022-08-22T14:30:30.648Z,2.35
2022-08-22T14:31:32.291Z,2.40
2022-08-22T14:32:41.745Z,2.70
2022-08-22T14:34:12.203Z,2.63
2022-08-22T14:35:21.678Z,2.33
2022-08-22T14:36:47.964Z,2.85
2022-08-22T14:37:54.304Z,2.97
2022-08-22T14:39:00.113Z,3.00
2022-08-22T14:40:17.953Z,2.97
2022-08-22T14:41:55.620Z,2.80
2022-08-22T14:43:06.794Z,2.72
2022-08-22T14:44:31.551Z,3.67
2022-08-22T14:45:40.701Z,2.70
2022-08-22T14:46:54.027Z,2.80
2022-08-22T14:48:29.474Z,2.88
2022-08-22T14:49:31.670Z,2.30
2022-08-22T14:50:40.490Z,2.10
2022-08-22T14:51:50.712Z,2.57
2022-08-22T14:52:52.767Z,2.70
2022-08-22T14:53:54.384Z,2.28
2022-08-22T14:55:16.877Z,2.78
2022-08-22T14:56:28.495Z,2.10
2022-08-22T14:57:30.798Z,2.40
2022-08-22T14:58:38.195Z,1.83
2022-08-22T14:59:51.863Z,2.55
2022-08-22T15:00:54.007Z,2.20
2022-08-22T15:02:23.154Z,1.90
2022-08-22T15:03:29.034Z,1.80
2022-08-22T15:04:52.801Z,1.73
2022-08-22T15:06:01.604Z,1.65
2022-08-22T15:07:03.421Z,1.48
2022-08-22T15:08:05.585Z,1.20
2022-08-22T15:09:23.600Z,1.42
2022-08-22T15:10:27.858Z,1.58
2022-08-22T15:11:33.334Z,1.60
2022-08-22T15:12:49.630Z,1.33
2022-08-22T15:14:00.349Z,1.30
2022-08-22T15:15:04.780Z,0.93
2022-08-22T15:16:31.297Z,1.10
2022-08-22T15:17:44.332Z,1.00
2022-08-22T15:18:51.754Z,1.13
2022-08-22T15:19:53.861Z,0.80
2022-08-22T15:21:24.266Z,0.75
2022-08-22T15:22:27.550Z,0.93
2022-08-22T15:23:29.525Z,0.80
2022-08-22T15:24:31.644Z,0.82
2022-08-22T15:25:40.971Z,0.68
2022-08-22T15:26:52.423Z,0.53
2022-08-22T15:28:00.383Z,0.60
2022-08-22T15:29:31.186Z,0.80
2022-08-22T15:31:03.713Z,0.50
2022-08-22T15:32:05.666Z,0.43
2022-08-22T15:33:22.504Z,0.43
2022-08-22T15:34:33.382Z,0.30
2022-08-22T15:35:35.076Z,0.40
2022-08-22T15:37:17.828Z,0.68
2022-08-22T15:38:32.761Z,0.30
2022-08-22T15:39:57.066Z,0.30
2022-08-22T15:41:36.358Z,0.30
2022-08-22T15:42:50.064Z,0.35
2022-08-22T15:44:14.766Z,0.40
2022-08-22T15:45:34.736Z,0.40
2022-08-22T15:46:44.246Z,0.43
2022-08-22T15:47:49.297Z,0.30
2022-08-22T15:49:01.108Z,0.30
2022-08-22T15:50:14.686Z,0.30
2022-08-22T15:51:36.756Z,0.40
2022-08-22T15:53:10.823Z,0.30
2022-08-22T15:54:25.227Z,0.40
2022-08-22T15:55:27.395Z,0.30
2022-08-22T15:56:36.788Z,0.50
2022-08-22T15:57:41.803Z,0.40
2022-08-22T15:58:49.541Z,0.30
2022-08-22T15:59:55.082Z,0.40
2022-08-22T16:01:20.496Z,0.30
2022-08-22T16:02:38.920Z,0.30
2022-08-22T16:03:41.806Z,0.30
2022-08-22T16:04:49.509Z,0.37
2022-08-22T16:05:56.683Z,0.40
2022-08-22T16:07:00.486Z,0.35
2022-08-22T16:08:32.729Z,0.55
2022-08-22T16:09:46.739Z,0.65
2022-08-22T16:10:55.055Z,0.30
2022-08-22T16:11:56.667Z,0.52
2022-08-22T16:13:38.141Z,0.45
2022-08-22T16:14:46.197Z,0.40
2022-08-22T16:15:56.381Z,0.40
2022-08-22T16:17:03.619Z,0.50
2022-08-22T16:18:05.717Z,0.50
2022-08-22T16:19:14.450Z,0.60
2022-08-22T16:20:19.961Z,0.40
2022-08-22T16:21:22.276Z,0.40
2022-08-22T16:22:23.898Z,0.60
2022-08-22T16:23:25.602Z,0.47
2022-08-22T16:24:31.274Z,0.50
2022-08-22T16:25:50.358Z,1.00
2022-08-22T16:26:52.167Z,0.70
2022-08-22T16:27:55.585Z,0.70
2022-08-22T16:29:06.771Z,0.70
2022-08-22T16:30:09.541Z,0.57
2022-08-22T16:31:23.950Z,0.98